»·PEaware :: VTE250 KDFW-TNCM

VTE250 :: KDFW-TNCM

FLIGHT INFORMATION

Flight Status: Arrived
Operator: Unknown
More flights by this operator :: More flights under this callsign
Pilot: Anonymous 13363 (13363)
Aircraft: BOEING 747-400 (WINGLETS)
(B744)
More flights by this aircraft type
Origin: KDFW Dallas-Ft Worth Intl
United States
Destination: TNCM Princess Juliana Intl
Netherlands Antilles
More flights between these airports :: More routes between these airports
Route: WYLIE9 SWB MCB J50 CEW J2 SZW OMN/N0498F370 Y585 ELMUC L451 SLUGO ULUBA1
File this flight plan on PilotEdge
Remarks: PBN / A1B1D1O1S2 NAV / RNVD1E2A1 DOF / 180113 REG / N484SB EET / KZHU0023 KZJX0045 KZMA0139 TJZS0317 CODE / 4QEJJX OPR / VTE PER / D RMK / TCAS SIMBRIEF
Altitude:
(Current/Filed)
35,000ft
Speed:
(Current/Filed)
497kts
Departed: 12-Jan-18 08:14 PM
Arrived: 13-Jan-18 12:16 AM
Distance/Time
Traveled:
2030nm/4:02
Distance/Time
To Go:
Arrived

Flight Plot

Page will automatically refresh every two minutes.

Flight plan parsing failed; only flown route is shown


Map Options




Map Legend


Flown Route
Filed Route
Departure Airport
Arrival Airport
Navaid (VOR, NDB)
Fix

Horizontal Profiles

Position Reports

Time Latitude Longitude Heading Altitude Ground
Speed
12-Jan-18 20:04 32.886560 -97.017200 359 620ft 0kts
12-Jan-18 20:05 32.886560 -97.017200 359 620ft 0kts
12-Jan-18 20:06 32.886560 -97.017200 359 620ft 0kts
12-Jan-18 20:07 32.886560 -97.017200 359 620ft 0kts
12-Jan-18 20:08 32.886560 -97.017200 359 620ft 0kts
12-Jan-18 20:09 32.886561 -97.017200 359 620ft 0kts
12-Jan-18 20:10 32.886561 -97.017200 358 620ft 0kts
12-Jan-18 20:11 32.886562 -97.017200 358 620ft 0kts
12-Jan-18 20:12 32.886562 -97.017200 358 620ft 0kts
12-Jan-18 20:13 32.886562 -97.017200 358 620ft 0kts
12-Jan-18 20:14 32.886563 -97.017200 358 620ft 0kts
12-Jan-18 20:15 32.886563 -97.017200 358 620ft 0kts
12-Jan-18 20:16 32.887218 -97.018579 262 620ft 14kts
12-Jan-18 20:17 32.886712 -97.022533 262 620ft 0kts
12-Jan-18 20:18 32.885782 -97.022914 184 620ft 13kts
12-Jan-18 20:19 32.885067 -97.025836 315 620ft 1kts
12-Jan-18 20:20 32.893128 -97.025988 1 620ft 53kts
12-Jan-18 20:21 32.909114 -97.025920 359 620ft 53kts
12-Jan-18 20:22 32.909114 -97.025920 359 620ft 53kts
12-Jan-18 20:23 32.909114 -97.025920 359 620ft 53kts
12-Jan-18 20:24 32.910758 -97.027878 355 620ft 17kts
12-Jan-18 20:25 32.915607 -97.026704 91 620ft 13kts
12-Jan-18 20:26 32.904519 -97.025888 179 620ft 131kts
12-Jan-18 20:27 32.859543 -97.019133 135 2188ft 197kts
12-Jan-18 20:28 32.843713 -96.956320 105 3881ft 230kts
12-Jan-18 20:29 32.835235 -96.870297 98 5503ft 279kts
12-Jan-18 20:30 32.826668 -96.775970 97 8311ft 295kts
12-Jan-18 20:31 32.813803 -96.675680 98 10630ft 330kts
12-Jan-18 20:32 32.795380 -96.553048 99 11315ft 424kts
12-Jan-18 20:33 32.773014 -96.409367 98 13940ft 458kts
12-Jan-18 20:34 32.748960 -96.255648 98 16927ft 485kts
12-Jan-18 20:35 32.723455 -96.094548 98 19685ft 508kts
12-Jan-18 20:36 32.697634 -95.928361 98 22213ft 527kts
12-Jan-18 20:37 32.669680 -95.754785 98 24406ft 544kts
12-Jan-18 20:38 32.660385 -95.575222 82 26430ft 548kts
12-Jan-18 20:39 32.673699 -95.396476 81 29144ft 540kts
12-Jan-18 20:40 32.685663 -95.219996 81 31292ft 537kts
12-Jan-18 20:41 32.697806 -95.042747 81 32984ft 538kts
12-Jan-18 20:42 32.708909 -94.865950 81 34527ft 537kts
12-Jan-18 20:43 32.679360 -94.691394 109 35417ft 549kts
12-Jan-18 20:44 32.620777 -94.523758 111 35432ft 548kts
12-Jan-18 20:45 32.564202 -94.358868 110 35446ft 548kts
12-Jan-18 20:46 32.506874 -94.191267 111 35448ft 547kts
12-Jan-18 20:47 32.449289 -94.024524 111 35437ft 548kts
12-Jan-18 20:48 32.400160 -93.882981 111 35430ft 568kts
12-Jan-18 20:49 32.328729 -93.678277 111 35430ft 579kts
12-Jan-18 20:50 32.267119 -93.502724 111 35437ft 578kts
12-Jan-18 20:51 32.215619 -93.356686 112 35442ft 578kts
12-Jan-18 20:52 32.153494 -93.181357 112 35458ft 577kts
12-Jan-18 20:53 32.092538 -93.009959 111 35462ft 577kts
12-Jan-18 20:54 32.030032 -92.835113 112 35463ft 577kts
12-Jan-18 20:55 31.959631 -92.631298 107 35465ft 576kts
12-Jan-18 20:56 31.920163 -92.480830 106 35466ft 575kts
12-Jan-18 20:57 31.872074 -92.301646 106 35465ft 575kts
12-Jan-18 20:58 31.824337 -92.122416 106 35466ft 575kts
12-Jan-18 20:59 31.775721 -91.942894 106 35465ft 575kts
12-Jan-18 21:00 31.726950 -91.764161 107 35468ft 575kts
12-Jan-18 21:01 31.678721 -91.588504 107 35469ft 574kts
12-Jan-18 21:02 31.629541 -91.410463 107 35469ft 574kts
12-Jan-18 21:03 31.580087 -91.232513 107 35470ft 574kts
12-Jan-18 21:04 31.530249 -91.054257 107 35470ft 575kts
12-Jan-18 21:05 31.484800 -90.892624 107 35468ft 576kts
12-Jan-18 21:06 31.458184 -90.798375 107 35466ft 576kts
12-Jan-18 21:07 31.407772 -90.620711 108 35463ft 576kts
12-Jan-18 21:08 31.357228 -90.442880 108 35461ft 577kts
12-Jan-18 21:09 31.306780 -90.264438 104 35457ft 576kts
12-Jan-18 21:10 31.281800 -90.082609 96 35465ft 575kts
12-Jan-18 21:11 31.259716 -89.897104 97 35468ft 575kts
12-Jan-18 21:12 31.237523 -89.712071 97 35473ft 576kts
12-Jan-18 21:13 31.214684 -89.527228 97 35479ft 575kts
12-Jan-18 21:14 31.191413 -89.342048 97 35480ft 575kts
12-Jan-18 21:15 31.167914 -89.157336 98 35480ft 576kts
12-Jan-18 21:16 31.144077 -88.972163 98 35481ft 576kts
12-Jan-18 21:17 31.120036 -88.787514 98 35484ft 576kts
12-Jan-18 21:18 31.096056 -88.605440 98 35485ft 576kts
12-Jan-18 21:19 31.071397 -88.420258 98 35490ft 576kts
12-Jan-18 21:20 31.046544 -88.235720 98 35491ft 577kts
12-Jan-18 21:21 31.021361 -88.050744 98 35496ft 577kts
12-Jan-18 21:22 30.995986 -87.866376 99 35500ft 578kts
12-Jan-18 21:23 30.970238 -87.681358 99 35499ft 578kts
12-Jan-18 21:24 30.944175 -87.496062 99 35489ft 578kts
12-Jan-18 21:25 30.917941 -87.311493 99 35694ft 579kts
12-Jan-18 21:26 30.891775 -87.129295 100 36238ft 581kts
12-Jan-18 21:27 30.865234 -86.944426 100 36730ft 582kts
12-Jan-18 21:28 30.837828 -86.758886 100 37189ft 583kts
12-Jan-18 21:29 30.822522 -86.570617 91 37501ft 585kts
12-Jan-18 21:30 30.819990 -86.381506 91 37509ft 585kts
12-Jan-18 21:31 30.815483 -86.192237 91 37505ft 586kts
12-Jan-18 21:32 30.811687 -86.002334 91 37501ft 586kts
12-Jan-18 21:33 30.808011 -85.812362 91 37489ft 589kts
12-Jan-18 21:34 30.804590 -85.621534 91 37488ft 589kts
12-Jan-18 21:35 30.800996 -85.433767 92 37488ft 590kts
12-Jan-18 21:36 30.796552 -85.243207 93 37490ft 590kts
12-Jan-18 21:37 30.770045 -85.055955 111 37490ft 587kts
12-Jan-18 21:38 30.714040 -84.879589 114 37495ft 584kts
12-Jan-18 21:39 30.658826 -84.701694 113 37498ft 584kts
12-Jan-18 21:40 30.603501 -84.524541 114 37499ft 584kts
12-Jan-18 21:41 30.547263 -84.347961 117 37500ft 583kts
12-Jan-18 21:42 30.482644 -84.175320 118 37500ft 581kts
12-Jan-18 21:43 30.419447 -84.006092 118 37499ft 582kts
12-Jan-18 21:44 30.355792 -83.833462 119 37498ft 582kts
12-Jan-18 21:45 30.291671 -83.661699 119 37498ft 582kts
12-Jan-18 21:46 30.227330 -83.490313 119 37501ft 582kts
12-Jan-18 21:47 30.162484 -83.318418 119 37503ft 582kts
12-Jan-18 21:48 30.097644 -83.147363 119 37503ft 582kts
12-Jan-18 21:49 30.032269 -82.975710 120 37505ft 583kts
12-Jan-18 21:50 29.966920 -82.804886 121 37500ft 583kts
12-Jan-18 21:51 29.902173 -82.636512 121 37496ft 583kts
12-Jan-18 21:52 29.836171 -82.465633 121 37495ft 583kts
12-Jan-18 21:53 29.770128 -82.295435 121 37497ft 582kts
12-Jan-18 21:54 29.703726 -82.125084 122 37491ft 582kts
12-Jan-18 21:55 29.637305 -81.955458 122 37471ft 583kts
12-Jan-18 21:56 29.570610 -81.785907 122 37477ft 583kts
12-Jan-18 21:57 29.503415 -81.615856 123 37463ft 584kts
12-Jan-18 21:58 29.436089 -81.446182 123 37458ft 585kts
12-Jan-18 21:59 29.368396 -81.275983 124 37468ft 586kts
12-Jan-18 22:00 29.296609 -81.114006 138 37463ft 563kts
12-Jan-18 22:01 29.189536 -80.987922 149 37458ft 547kts
12-Jan-18 22:02 29.079029 -80.868140 148 37455ft 547kts
12-Jan-18 22:03 28.969289 -80.747880 149 37448ft 547kts
12-Jan-18 22:04 28.858754 -80.627892 149 37433ft 547kts
12-Jan-18 22:05 28.764036 -80.486804 135 37434ft 572kts
12-Jan-18 22:06 28.675162 -80.336145 136 37422ft 572kts
12-Jan-18 22:07 28.585723 -80.186350 136 37422ft 571kts
12-Jan-18 22:08 28.497438 -80.039398 136 37422ft 571kts
12-Jan-18 22:09 28.407238 -79.890022 136 37422ft 572kts
12-Jan-18 22:10 28.317107 -79.741343 137 37421ft 572kts
12-Jan-18 22:11 28.226888 -79.593013 137 37419ft 572kts
12-Jan-18 22:12 28.136207 -79.444438 137 37416ft 572kts
12-Jan-18 22:13 28.045776 -79.296778 137 37417ft 571kts
12-Jan-18 22:14 27.955180 -79.149361 137 37413ft 570kts
12-Jan-18 22:15 27.864288 -79.001942 137 37400ft 570kts
12-Jan-18 22:16 27.774984 -78.857179 137 37396ft 569kts
12-Jan-18 22:17 27.684035 -78.710924 137 37391ft 569kts
12-Jan-18 22:18 27.594754 -78.563199 135 37377ft 572kts
12-Jan-18 22:19 27.507217 -78.413366 135 37372ft 573kts
12-Jan-18 22:20 27.419239 -78.263151 135 37368ft 572kts
12-Jan-18 22:21 27.331814 -78.114312 135 37366ft 570kts
12-Jan-18 22:22 27.244009 -77.965634 135 37364ft 570kts
12-Jan-18 22:23 27.156343 -77.817301 135 37363ft 569kts
12-Jan-18 22:24 27.068487 -77.669705 135 37362ft 569kts
12-Jan-18 22:25 26.982732 -77.524009 133 37360ft 568kts
12-Jan-18 22:26 26.899125 -77.373463 133 37366ft 570kts
12-Jan-18 22:27 26.814830 -77.222818 132 37366ft 570kts
12-Jan-18 22:28 26.731040 -77.072603 133 37365ft 568kts
12-Jan-18 22:29 26.647047 -76.923554 133 37334ft 567kts
12-Jan-18 22:30 26.562151 -76.774676 134 37330ft 565kts
12-Jan-18 22:31 26.475177 -76.629321 135 37333ft 562kts
12-Jan-18 22:32 26.388322 -76.483951 134 37331ft 562kts
12-Jan-18 22:33 26.303271 -76.341028 134 37329ft 562kts
12-Jan-18 22:34 26.216765 -76.196741 135 37326ft 560kts
12-Jan-18 22:35 26.130103 -76.052303 135 37324ft 560kts
12-Jan-18 22:36 26.043327 -75.908771 135 37322ft 559kts
12-Jan-18 22:37 25.955475 -75.765731 136 37321ft 558kts
12-Jan-18 22:38 25.867428 -75.624097 136 37319ft 558kts
12-Jan-18 22:39 25.779498 -75.482438 135 37315ft 557kts
12-Jan-18 22:40 25.691291 -75.340589 135 37308ft 557kts
12-Jan-18 22:41 25.604632 -75.201935 135 37304ft 557kts
12-Jan-18 22:42 25.516249 -75.060959 135 37300ft 555kts
12-Jan-18 22:43 25.428477 -74.921003 135 37297ft 554kts
12-Jan-18 22:44 25.340280 -74.781367 135 37292ft 554kts
12-Jan-18 22:45 25.252160 -74.641281 135 37288ft 554kts
12-Jan-18 22:46 25.164806 -74.501370 135 37283ft 554kts
12-Jan-18 22:47 25.077113 -74.361072 134 37277ft 554kts
12-Jan-18 22:48 24.989819 -74.221332 135 37238ft 554kts
12-Jan-18 22:49 24.905184 -74.086618 134 37233ft 553kts
12-Jan-18 22:50 24.816090 -73.945236 134 37227ft 553kts
12-Jan-18 22:51 24.728547 -73.806434 134 37221ft 552kts
12-Jan-18 22:52 24.640535 -73.667636 134 37216ft 552kts
12-Jan-18 22:53 24.552383 -73.529664 135 37210ft 551kts
12-Jan-18 22:54 24.461614 -73.394584 135 37205ft 550kts
12-Jan-18 22:55 24.370715 -73.259261 135 37200ft 550kts
12-Jan-18 22:56 24.280375 -73.124124 135 37195ft 551kts
12-Jan-18 22:57 24.204739 -73.011654 135 37191ft 551kts
12-Jan-18 22:58 24.100200 -72.856712 135 37185ft 550kts
12-Jan-18 22:59 24.024328 -72.744576 135 37175ft 551kts
12-Jan-18 23:00 23.932925 -72.609835 135 37170ft 548kts
12-Jan-18 23:01 23.842019 -72.476154 135 37167ft 549kts
12-Jan-18 23:02 23.750859 -72.342466 135 37164ft 550kts
12-Jan-18 23:03 23.659193 -72.208390 135 37164ft 550kts
12-Jan-18 23:04 23.567711 -72.074934 135 37158ft 550kts
12-Jan-18 23:05 23.476042 -71.941292 135 37156ft 549kts
12-Jan-18 23:06 23.386400 -71.811386 135 37154ft 548kts
12-Jan-18 23:07 23.294993 -71.678804 134 37153ft 548kts
12-Jan-18 23:08 23.203379 -71.546043 133 37148ft 547kts
12-Jan-18 23:09 23.111855 -71.413425 128 37070ft 546kts
12-Jan-18 23:10 23.020513 -71.281036 128 37070ft 547kts
12-Jan-18 23:11 22.929024 -71.149118 128 37070ft 548kts
12-Jan-18 23:12 22.837516 -71.017239 128 37071ft 548kts
12-Jan-18 23:13 22.745399 -70.885276 128 37072ft 549kts
12-Jan-18 23:14 22.653837 -70.752938 127 37073ft 549kts
12-Jan-18 23:15 22.565745 -70.622826 127 37075ft 550kts
12-Jan-18 23:16 22.475101 -70.488760 126 37073ft 551kts
12-Jan-18 23:17 22.384343 -70.355509 126 37075ft 552kts
12-Jan-18 23:18 22.292007 -70.222478 127 37077ft 552kts
12-Jan-18 23:19 22.198894 -70.090738 127 37079ft 553kts
12-Jan-18 23:20 22.105619 -69.959048 127 37081ft 553kts
12-Jan-18 23:21 22.011982 -69.827097 127 37113ft 553kts
12-Jan-18 23:22 21.919700 -69.694273 127 37111ft 554kts
12-Jan-18 23:23 21.828407 -69.563300 127 37126ft 554kts
12-Jan-18 23:24 21.736231 -69.430626 127 37092ft 554kts
12-Jan-18 23:25 21.643661 -69.298129 127 37092ft 554kts
12-Jan-18 23:26 21.550624 -69.165326 127 37092ft 556kts
12-Jan-18 23:27 21.457649 -69.032928 127 37093ft 556kts
12-Jan-18 23:28 21.364644 -68.900528 127 37094ft 557kts
12-Jan-18 23:29 21.270939 -68.767878 127 37095ft 557kts
12-Jan-18 23:30 21.177235 -68.635627 127 37095ft 558kts
12-Jan-18 23:31 21.085011 -68.505809 127 37095ft 557kts
12-Jan-18 23:32 20.991245 -68.373852 127 37096ft 557kts
12-Jan-18 23:33 20.897533 -68.241849 127 37106ft 558kts
12-Jan-18 23:34 20.803162 -68.109845 127 37106ft 558kts
12-Jan-18 23:35 20.717964 -67.971452 121 37094ft 558kts
12-Jan-18 23:36 20.636295 -67.830436 121 37094ft 559kts
12-Jan-18 23:37 20.553992 -67.689207 121 37095ft 559kts
12-Jan-18 23:38 20.471766 -67.548691 121 37096ft 559kts
12-Jan-18 23:39 20.389068 -67.407895 121 37096ft 559kts
12-Jan-18 23:40 20.337014 -67.258491 88 37095ft 553kts
12-Jan-18 23:41 20.367721 -67.100600 75 37095ft 543kts
12-Jan-18 23:42 20.326066 -66.949588 131 37105ft 559kts
12-Jan-18 23:43 20.214773 -66.833532 137 37101ft 561kts
12-Jan-18 23:44 20.104982 -66.716020 130 37105ft 561kts
12-Jan-18 23:45 20.008141 -66.585530 127 37101ft 561kts
12-Jan-18 23:46 19.912353 -66.454846 128 37100ft 561kts
12-Jan-18 23:47 19.816141 -66.323899 128 37098ft 561kts
12-Jan-18 23:48 19.721747 -66.195686 128 37101ft 561kts
12-Jan-18 23:49 19.625706 -66.065433 128 37099ft 561kts
12-Jan-18 23:50 19.529390 -65.934865 128 37089ft 562kts
12-Jan-18 23:51 19.449853 -65.794793 101 37094ft 560kts
12-Jan-18 23:52 19.433741 -65.631254 91 37084ft 554kts
12-Jan-18 23:53 19.403164 -65.473193 120 37091ft 560kts
12-Jan-18 23:54 19.312509 -65.338249 126 37086ft 563kts
12-Jan-18 23:55 19.220505 -65.203620 126 37085ft 563kts
12-Jan-18 23:56 19.130287 -65.071756 126 37084ft 563kts
12-Jan-18 23:57 19.038789 -64.937303 126 37093ft 564kts
12-Jan-18 23:58 19.024042 -64.915573 126 37095ft 564kts
12-Jan-18 23:59 19.024042 -64.915573 126 37095ft 564kts
13-Jan-18 00:00 18.966763 -64.829571 120 37080ft 563kts
13-Jan-18 00:01 18.893215 -64.684112 117 36612ft 549kts
13-Jan-18 00:02 18.821733 -64.538745 117 35123ft 567kts
13-Jan-18 00:03 18.751349 -64.396044 117 33227ft 537kts
13-Jan-18 00:04 18.683270 -64.258304 117 31255ft 532kts
13-Jan-18 00:05 18.615906 -64.122318 117 29257ft 515kts
13-Jan-18 00:06 18.550503 -63.990578 117 27252ft 497kts
13-Jan-18 00:07 18.487660 -63.863717 117 25013ft 482kts
13-Jan-18 00:08 18.426206 -63.740448 116 22207ft 466kts
13-Jan-18 00:09 18.355733 -63.632283 133 19132ft 440kts
13-Jan-18 00:10 18.269470 -63.547515 135 15636ft 410kts
13-Jan-18 00:11 18.188958 -63.467653 135 12159ft 383kts
13-Jan-18 00:12 18.116316 -63.395780 135 10243ft 324kts
13-Jan-18 00:13 18.068771 -63.332668 92 8880ft 249kts
13-Jan-18 00:14 18.114442 -63.304478 337 7231ft 233kts
13-Jan-18 00:15 18.114303 -63.362033 212 5698ft 227kts
13-Jan-18 00:16 18.062841 -63.345108 137 5377ft 197kts
13-Jan-18 00:17 18.019800 -63.295148 107 4314ft 228kts
13-Jan-18 00:18 18.020758 -63.239391 82 3735ft 162kts
13-Jan-18 00:19 18.029149 -63.195186 81 2503ft 143kts
13-Jan-18 00:20 18.034466 -63.155030 80 1257ft 143kts
13-Jan-18 00:21 18.040138 -63.114171 81 34ft 131kts
13-Jan-18 00:22 18.041912 -63.099470 53 13ft 0kts
13-Jan-18 00:23 18.042269 -63.098704 275 13ft 10kts
13-Jan-18 00:24 18.041980 -63.101430 260 13ft 11kts
13-Jan-18 00:25 18.041197 -63.106640 261 13ft 17kts
13-Jan-18 00:26 18.040627 -63.111155 272 13ft 13kts
13-Jan-18 00:27 18.041625 -63.113145 356 13ft 7kts
13-Jan-18 00:28 18.043306 -63.113661 352 13ft 0kts
13-Jan-18 00:29 18.043307 -63.113661 352 13ft 0kts
13-Jan-18 00:30 18.043307 -63.113661 352 13ft 0kts
13-Jan-18 00:31 18.043307 -63.113661 352 13ft 0kts
13-Jan-18 00:32 18.043307 -63.113661 352 13ft 0kts
13-Jan-18 00:33 18.043307 -63.113661 352 13ft 0kts
13-Jan-18 00:34 18.043307 -63.113661 352 13ft 0kts
13-Jan-18 00:35 18.043307 -63.113661 352 13ft 0kts
13-Jan-18 00:36 18.043307 -63.113661 352 13ft 0kts

Navigation Log

Ident Type
Flight plan parsing failed, navigation log unavailable